Time;durP1;ratioP1;P1;durP2;ratioP2;P2;SDS_P1;SDS_P2;PMS_P1;PMS_P2;Temp;Humidity;BMP_temperature;BMP_pressure;BME280_temperature;BME280_humidity;BME280_pressure;Samples;Min_cycle;Max_cycle;Signal;HPM_P1;HPM_P2
2022/09/01 00:01:02;;;;;;;4.10;1.13;;;14.60;99.90;;;;;;5113036;27;20043;-94
2022/09/01 00:03:28;;;;;;;2.75;1.13;;;14.10;99.90;;;;;;5077612;27;20077;-94
2022/09/01 00:05:55;;;;;;;3.30;0.95;;;14.10;99.90;;;;;;5077888;27;20058;-91
2022/09/01 00:08:23;;;;;;;3.88;1.17;;;14.10;99.90;;;;;;5093400;27;20039;-94
2022/09/01 00:10:49;;;;;;;3.50;0.95;;;14.10;99.90;;;;;;5076236;27;20046;-93
2022/09/01 00:13:15;;;;;;;2.80;1.40;;;14.00;99.90;;;;;;5095622;27;20167;-94
2022/09/01 00:15:42;;;;;;;1.10;0.70;;;14.00;99.90;;;;;;5076174;27;20427;-92
2022/09/01 00:18:08;;;;;;;1.42;1.20;;;14.40;99.90;;;;;;5077762;27;20035;-93
2022/09/01 00:20:33;;;;;;;2.20;0.90;;;14.00;99.90;;;;;;5109843;27;20581;-94
2022/09/01 00:22:59;;;;;;;2.92;0.90;;;14.00;99.90;;;;;;5077305;27;20130;-92
2022/09/01 00:25:26;;;;;;;2.72;0.98;;;14.10;99.90;;;;;;5093772;27;20064;-93
2022/09/01 00:27:53;;;;;;;4.70;1.00;;;13.90;99.90;;;;;;5093234;27;20043;-93
2022/09/01 00:30:20;;;;;;;2.33;1.02;;;13.90;99.90;;;;;;5112193;27;20095;-94
2022/09/01 00:32:46;;;;;;;1.20;0.90;;;13.80;99.90;;;;;;5076132;27;20062;-93
2022/09/01 00:35:14;;;;;;;1.73;1.00;;;13.80;99.90;;;;;;5077726;27;20122;-94
2022/09/01 00:37:45;;;;;;;3.13;1.15;;;13.80;99.90;;;;;;5128083;27;20039;-94
2022/09/01 00:40:13;;;;;;;2.60;1.00;;;13.80;99.90;;;;;;5093655;27;20370;-95
2022/09/01 00:42:47;;;;;;;1.77;0.95;;;14.30;99.90;;;;;;5129507;27;20123;-94
2022/09/01 00:45:12;;;;;;;2.65;0.73;;;13.80;99.90;;;;;;5110027;27;20118;-94
2022/09/01 00:47:38;;;;;;;4.20;1.17;;;13.70;99.90;;;;;;5078122;27;20085;-93
2022/09/01 00:50:06;;;;;;;1.48;0.95;;;14.10;99.90;;;;;;5109314;27;20630;-94
2022/09/01 00:52:41;;;;;;;2.10;0.95;;;13.70;99.90;;;;;;5093128;27;20055;-94
2022/09/01 00:55:12;;;;;;;1.40;0.90;;;13.70;99.90;;;;;;5109788;27;20058;-95
2022/09/01 00:57:38;;;;;;;1.90;1.02;;;13.70;99.90;;;;;;5110372;28;20130;-93
2022/09/01 01:00:13;;;;;;;3.50;1.02;;;14.20;99.90;;;;;;5077804;28;20058;-93
2022/09/01 01:02:40;;;;;;;1.83;0.90;;;13.80;99.90;;;;;;5092428;28;20081;-94
2022/09/01 01:05:08;;;;;;;2.67;0.98;;;13.80;99.90;;;;;;5077620;28;20043;-93
2022/09/01 01:07:37;;;;;;;2.35;1.00;;;13.80;99.90;;;;;;5075694;28;20075;-94
2022/09/01 01:10:10;;;;;;;2.05;0.82;;;13.80;99.90;;;;;;5094177;28;20039;-94
2022/09/01 01:12:39;;;;;;;;;;;13.80;99.90;;;;;;5093888;28;20043;-94
2022/09/01 01:15:07;;;;;;;4.72;1.10;;;13.80;99.90;;;;;;5109664;28;19920;-95
2022/09/01 01:17:37;;;;;;;2.45;1.15;;;13.80;99.90;;;;;;5111415;28;20039;-94
2022/09/01 01:23:14;;;;;;;2.13;1.10;;;13.80;99.90;;;;;;5076881;27;20159;-90
2022/09/01 01:25:47;;;;;;;1.27;0.85;;;13.80;99.90;;;;;;5096882;27;20161;-92
2022/09/01 01:28:40;;;;;;;1.20;0.90;;;13.80;99.90;;;;;;5096351;27;20071;-92
2022/09/01 01:31:11;;;;;;;;;;;13.80;99.90;;;;;;5111520;27;20099;-93
2022/09/01 01:33:45;;;;;;;2.03;1.15;;;13.90;99.90;;;;;;5091157;27;19927;-91
2022/09/01 01:36:14;;;;;;;1.67;0.75;;;13.90;99.90;;;;;;5113373;27;20059;-91
2022/09/01 01:38:42;;;;;;;1.83;0.75;;;13.90;99.90;;;;;;5097269;27;20067;-93
2022/09/01 01:41:13;;;;;;;3.80;1.10;;;13.90;99.90;;;;;;5112649;27;20042;-93
2022/09/01 01:43:40;;;;;;;1.33;0.95;;;13.90;99.90;;;;;;5080565;27;20046;-93
2022/09/01 01:46:08;;;;;;;5.00;1.00;;;13.90;99.90;;;;;;5095376;27;20050;-94
2022/09/01 01:48:38;;;;;;;1.83;1.02;;;14.40;99.90;;;;;;5097377;27;20066;-92
2022/09/01 01:51:04;;;;;;;2.05;1.00;;;14.00;99.90;;;;;;5113683;27;20375;-95
2022/09/01 01:53:31;;;;;;;2.08;1.00;;;14.00;99.90;;;;;;5079794;27;20083;-95
2022/09/01 01:55:58;;;;;;;2.00;1.08;;;14.00;99.90;;;;;;5097844;27;20039;-94
2022/09/01 01:58:27;;;;;;;2.10;1.05;;;14.00;99.90;;;;;;5096033;27;20417;-94
2022/09/01 02:00:54;;;;;;;1.58;1.05;;;15.20;99.90;;;;;;5115240;27;20132;-94
2022/09/01 02:03:25;;;;;;;4.10;1.13;;;14.00;99.90;;;;;;5096301;27;20100;-94
2022/09/01 02:05:53;;;;;;;2.28;1.08;;;14.00;99.90;;;;;;5097215;27;20043;-95
2022/09/01 02:08:24;;;;;;;1.23;0.85;;;14.10;99.90;;;;;;5096703;27;20053;-93
2022/09/01 02:10:53;;;;;;;2.67;1.02;;;14.10;99.90;;;;;;5095938;27;20427;-94
2022/09/01 02:13:29;;;;;;;1.37;0.90;;;14.10;99.90;;;;;;5114587;27;20043;-93
2022/09/01 02:15:56;;;;;;;;;;;14.10;99.90;;;;;;5096395;27;20276;-93
2022/09/01 02:18:27;;;;;;;1.73;1.10;;;14.10;99.90;;;;;;5115589;27;20297;-95
2022/09/01 02:20:54;;;;;;;2.53;1.02;;;14.10;99.90;;;;;;5096614;27;20050;-94
2022/09/01 02:23:24;;;;;;;2.42;0.85;;;14.30;99.90;;;;;;5116782;27;20043;-93
2022/09/01 02:25:57;;;;;;;2.80;0.98;;;14.10;99.90;;;;;;5103107;27;20110;-94
2022/09/01 02:28:23;;;;;;;3.97;1.27;;;14.10;99.90;;;;;;5104980;27;20265;-94
2022/09/01 02:30:53;;;;;;;1.70;0.93;;;14.20;99.90;;;;;;5089096;27;20074;-95
2022/09/01 02:33:20;;;;;;;1.67;0.88;;;14.10;99.90;;;;;;5089704;27;20444;-94
2022/09/01 02:35:49;;;;;;;1.42;1.00;;;15.10;99.90;;;;;;5124687;27;20064;-95
2022/09/01 02:38:16;;;;;;;5.22;1.13;;;15.00;99.90;;;;;;5106307;27;20098;-95
2022/09/01 02:40:45;;;;;;;3.38;0.93;;;14.00;99.90;;;;;;5106393;27;20050;-95
2022/09/01 02:43:13;;;;;;;2.63;1.60;;;15.30;99.90;;;;;;5101318;27;20167;-94
2022/09/01 02:45:41;;;;;;;1.17;0.77;;;14.70;99.90;;;;;;5096401;27;20130;-95
2022/09/01 02:48:08;;;;;;;3.53;1.10;;;14.00;99.90;;;;;;5081496;27;20046;-94
2022/09/01 02:50:36;;;;;;;5.82;1.23;;;13.90;99.90;;;;;;5097590;27;20054;-95
2022/09/01 02:53:05;;;;;;;3.38;1.00;;;13.90;99.90;;;;;;5098640;27;20131;-96
2022/09/01 02:55:32;;;;;;;1.88;0.93;;;14.80;99.90;;;;;;5096055;27;20087;-96
2022/09/01 02:57:58;;;;;;;1.65;0.70;;;13.90;99.90;;;;;;5095785;27;20043;-94
2022/09/01 03:00:38;;;;;;;0.95;0.75;;;13.80;99.90;;;;;;5079215;27;20137;-94
2022/09/01 03:03:05;;;;;;;2.65;0.98;;;13.80;99.90;;;;;;5080430;27;20056;-96
2022/09/01 03:05:33;;;;;;;1.83;0.90;;;13.80;99.90;;;;;;5096073;27;20524;-96
2022/09/01 03:08:06;;;;;;;2.17;1.00;;;13.70;99.90;;;;;;5111652;27;20564;-96
2022/09/01 03:10:34;;;;;;;;;;;13.80;99.90;;;;;;5095937;27;20042;-94
2022/09/01 03:13:07;;;;;;;3.88;0.85;;;15.00;99.90;;;;;;5095049;27;19924;-93
2022/09/01 03:15:35;;;;;;;3.65;0.85;;;13.60;99.90;;;;;;5095090;27;20042;-93
2022/09/01 03:18:05;;;;;;;3.35;0.88;;;14.70;99.90;;;;;;5113826;27;20047;-94
2022/09/01 03:20:33;;;;;;;1.58;1.00;;;13.60;99.90;;;;;;5095587;27;20039;-94
2022/09/01 03:23:06;;;;;;;1.25;0.90;;;13.50;99.90;;;;;;5113680;27;20127;-94
2022/09/01 03:25:32;;;;;;;2.63;1.15;;;13.50;99.90;;;;;;5083943;27;20379;-94
2022/09/01 03:28:00;;;;;;;1.92;0.93;;;13.50;99.90;;;;;;5120260;27;20491;-95
2022/09/01 03:30:28;;;;;;;2.55;1.20;;;13.40;99.90;;;;;;5104756;27;20047;-95
2022/09/01 03:32:57;;;;;;;4.75;0.93;;;13.40;99.90;;;;;;5088124;27;20130;-95
2022/09/01 03:35:24;;;;;;;0.50;0.50;;;13.40;99.90;;;;;;5122233;27;20043;-96
2022/09/01 03:37:51;;;;;;;2.67;1.05;;;13.30;99.90;;;;;;5073734;27;20071;-95
2022/09/01 03:40:17;;;;;;;1.35;0.93;;;14.50;99.90;;;;;;5092159;27;20039;-95
2022/09/01 03:42:43;;;;;;;1.00;0.90;;;13.30;99.90;;;;;;5111728;27;20039;-96
2022/09/01 03:45:13;;;;;;;2.13;1.10;;;13.30;99.90;;;;;;5078995;27;20035;-95
2022/09/01 03:47:40;;;;;;;5.20;1.13;;;13.40;99.90;;;;;;5135964;27;20037;-96
2022/09/01 03:50:19;;;;;;;1.92;0.98;;;13.20;99.90;;;;;;5132503;27;20398;-95
2022/09/01 03:52:57;;;;;;;3.78;1.50;;;13.20;99.90;;;;;;5129552;27;20043;-94
2022/09/01 03:55:27;;;;;;;1.17;1.08;;;13.30;99.90;;;;;;5114397;27;20165;-96
2022/09/01 03:58:00;;;;;;;1.98;0.90;;;14.10;99.90;;;;;;5114413;27;20043;-95
2022/09/01 04:00:28;;;;;;;3.95;1.08;;;13.20;99.90;;;;;;5135616;27;20048;-94
2022/09/01 04:03:06;;;;;;;1.45;0.90;;;13.10;99.90;;;;;;5130764;27;20039;-95
2022/09/01 04:05:36;;;;;;;2.55;1.17;;;13.10;99.90;;;;;;5096210;27;20047;-96
2022/09/01 04:08:09;;;;;;;3.40;1.35;;;13.10;99.90;;;;;;5092230;27;20112;-96
2022/09/01 04:10:53;;;;;;;2.67;1.15;;;12.60;99.90;;;;;;5129900;27;20031;-96
2022/09/01 04:13:26;;;;;;;4.70;1.40;;;13.00;99.90;;;;;;5110641;27;20067;-95
2022/09/01 04:15:55;;;;;;;2.95;1.48;;;13.20;99.90;;;;;;5102209;27;20049;-95
2022/09/01 04:18:22;;;;;;;1.73;1.20;;;12.90;99.90;;;;;;5100138;27;20478;-92
2022/09/01 04:20:50;;;;;;;1.98;1.52;;;12.90;99.90;;;;;;5095400;27;20103;-93
2022/09/01 04:23:25;;;;;;;2.53;1.40;;;12.80;99.90;;;;;;5103635;27;20133;-95
2022/09/01 04:25:55;;;;;;;1.90;1.35;;;13.90;99.90;;;;;;5103620;27;20516;-95
2022/09/01 04:28:23;;;;;;;1.60;1.35;;;12.80;99.90;;;;;;5104464;27;20142;-95
2022/09/01 04:30:54;;;;;;;3.45;1.48;;;12.80;99.90;;;;;;5086730;27;20103;-95
2022/09/01 04:33:24;;;;;;;3.35;1.50;;;12.80;99.90;;;;;;5096168;27;20043;-93
2022/09/01 04:35:53;;;;;;;2.85;1.45;;;12.80;99.90;;;;;;5098891;27;20143;-95
2022/09/01 04:38:20;;;;;;;2.90;1.63;;;12.80;99.90;;;;;;5079226;27;20039;-91
2022/09/01 04:40:48;;;;;;;2.15;1.65;;;12.70;99.90;;;;;;5123963;27;20137;-90
2022/09/01 04:43:15;;;;;;;1.90;1.48;;;14.00;99.90;;;;;;5091952;27;20047;-90
2022/09/01 04:45:41;;;;;;;5.53;1.40;;;12.80;99.90;;;;;;5109891;27;20073;-91
2022/09/01 04:48:08;;;;;;;2.58;1.88;;;12.80;99.90;;;;;;5110785;27;20043;-90
2022/09/01 04:50:34;;;;;;;3.90;1.67;;;12.90;99.90;;;;;;5091980;27;20046;-87
2022/09/01 04:53:01;;;;;;;1.50;1.20;;;12.90;99.90;;;;;;5094051;27;20039;-89
2022/09/01 04:55:29;;;;;;;1.40;1.30;;;13.50;99.90;;;;;;5107165;27;20051;-88
2022/09/01 04:57:56;;;;;;;2.45;1.90;;;13.20;99.90;;;;;;5109806;27;20051;-87
2022/09/01 05:00:25;;;;;;;1.92;1.40;;;12.90;99.90;;;;;;5107664;28;20066;-86
2022/09/01 05:02:53;;;;;;;3.75;1.90;;;13.00;99.90;;;;;;5108569;28;20043;-87
2022/09/01 05:05:21;;;;;;;4.85;2.38;;;13.00;99.90;;;;;;5092244;28;20043;-87
2022/09/01 05:07:51;;;;;;;2.03;1.70;;;13.00;99.90;;;;;;5073585;28;20041;-87
2022/09/01 05:10:21;;;;;;;4.35;1.65;;;13.00;99.90;;;;;;5109170;28;20035;-88
2022/09/01 05:12:49;;;;;;;3.05;1.65;;;13.10;99.90;;;;;;5106955;28;20070;-87
2022/09/01 05:15:16;;;;;;;2.88;1.45;;;14.20;99.90;;;;;;5092254;28;20050;-88
2022/09/01 05:17:42;;;;;;;2.38;1.73;;;13.10;99.90;;;;;;5091423;28;20039;-90
2022/09/01 05:20:10;;;;;;;2.35;1.75;;;13.10;99.90;;;;;;5090985;28;20043;-84
2022/09/01 05:22:40;;;;;;;2.13;1.90;;;13.10;99.90;;;;;;5127329;28;20054;-86
2022/09/01 05:25:12;;;;;;;3.03;1.75;;;13.40;99.90;;;;;;5107039;28;20054;-85
2022/09/01 05:27:45;;;;;;;4.10;2.00;;;13.20;99.90;;;;;;5092490;28;20043;-84
2022/09/01 05:30:11;;;;;;;3.47;1.63;;;13.30;99.90;;;;;;5107440;28;20110;-84
2022/09/01 05:32:38;;;;;;;1.98;1.77;;;13.30;99.90;;;;;;5108453;28;20088;-84
2022/09/01 05:35:08;;;;;;;4.07;2.72;;;13.40;99.90;;;;;;5091696;28;20082;-88
2022/09/01 05:37:37;;;;;;;3.55;1.85;;;13.40;99.90;;;;;;5107289;28;20093;-85
2022/09/01 05:40:08;;;;;;;4.18;1.92;;;13.50;99.90;;;;;;5108456;28;20130;-86
2022/09/01 05:42:38;;;;;;;5.05;2.25;;;13.50;99.90;;;;;;5089628;28;20075;-87
2022/09/01 05:45:04;;;;;;;1.95;1.63;;;13.50;99.90;;;;;;5092804;28;20526;-87
2022/09/01 05:47:36;;;;;;;3.17;1.75;;;13.60;99.90;;;;;;5056940;28;20126;-87
2022/09/01 05:50:04;;;;;;;2.22;1.75;;;13.60;99.90;;;;;;5075046;28;20079;-87
2022/09/01 05:52:39;;;;;;;2.95;1.88;;;13.70;99.90;;;;;;5091333;28;20079;-86
2022/09/01 05:55:08;;;;;;;4.88;2.22;;;13.90;99.90;;;;;;5106506;28;20063;-87
2022/09/01 05:57:35;;;;;;;4.93;1.83;;;13.70;99.90;;;;;;5091842;28;20097;-87
2022/09/01 06:00:11;;;;;;;1.67;1.30;;;13.90;99.90;;;;;;5090011;28;20071;-87
2022/09/01 06:02:38;;;;;;;4.00;1.80;;;13.90;99.90;;;;;;5091139;28;20084;-87
2022/09/01 06:05:05;;;;;;;2.75;1.95;;;14.10;99.90;;;;;;5091627;27;20055;-87
2022/09/01 06:07:31;;;;;;;5.22;2.17;;;14.20;99.90;;;;;;5110722;27;20051;-86
2022/09/01 06:09:58;;;;;;;3.85;1.70;;;14.30;99.90;;;;;;5112625;27;20107;-87
2022/09/01 06:12:25;;;;;;;3.47;1.27;;;14.40;99.90;;;;;;5093131;27;20050;-87
2022/09/01 06:14:53;;;;;;;2.70;1.50;;;14.60;99.90;;;;;;5112773;27;20047;-87
2022/09/01 06:17:23;;;;;;;3.92;1.70;;;14.70;99.90;;;;;;5110424;27;20563;-87
2022/09/01 06:19:51;;;;;;;2.08;1.50;;;14.90;99.90;;;;;;5112040;27;20039;-86
2022/09/01 06:22:19;;;;;;;3.50;1.50;;;15.00;99.90;;;;;;5095672;27;20035;-86
2022/09/01 06:24:46;;;;;;;2.42;1.60;;;15.10;99.90;;;;;;5092914;27;20043;-86
2022/09/01 06:27:16;;;;;;;2.38;1.55;;;15.20;99.90;;;;;;5095262;27;20050;-86
2022/09/01 06:29:44;;;;;;;2.50;1.52;;;15.20;99.90;;;;;;5110496;27;20043;-86
2022/09/01 06:32:11;;;;;;;2.33;1.65;;;15.10;99.90;;;;;;5095187;27;20035;-86
2022/09/01 06:34:43;;;;;;;2.13;1.60;;;15.20;99.90;;;;;;5094108;27;20043;-87
2022/09/01 06:37:10;;;;;;;4.00;1.80;;;15.10;99.90;;;;;;5093437;27;20138;-87
2022/09/01 06:39:36;;;;;;;5.45;1.70;;;15.10;99.90;;;;;;5095192;27;20057;-86
2022/09/01 06:42:02;;;;;;;2.72;1.60;;;15.10;99.90;;;;;;5093020;27;20046;-86
2022/09/01 06:44:30;;;;;;;3.28;1.90;;;15.10;99.90;;;;;;5094821;27;20043;-86
2022/09/01 06:46:58;;;;;;;2.50;2.00;;;15.80;99.90;;;;;;5093759;27;20443;-86
2022/09/01 06:49:31;;;;;;;5.10;1.48;;;15.50;99.90;;;;;;5111662;27;20058;-86
2022/09/01 06:52:01;;;;;;;2.75;1.67;;;15.40;99.90;;;;;;5110927;27;20054;-86
2022/09/01 06:54:29;;;;;;;2.08;1.50;;;15.60;99.90;;;;;;5093868;27;20047;-85
2022/09/01 06:56:56;;;;;;;3.97;1.60;;;15.80;99.90;;;;;;5094472;27;20046;-85
2022/09/01 06:59:22;;;;;;;3.80;1.25;;;16.20;99.90;;;;;;5092515;27;20050;-86
2022/09/01 07:01:50;;;;;;;2.90;1.35;;;16.20;99.90;;;;;;5094942;27;20043;-85
2022/09/01 07:04:18;;;;;;;9.95;1.60;;;17.00;99.90;;;;;;5109640;27;20798;-86
2022/09/01 07:06:50;;;;;;;2.50;1.73;;;16.30;99.90;;;;;;5094776;27;20039;-85
2022/09/01 07:09:17;;;;;;;2.17;1.35;;;16.30;99.90;;;;;;5096550;27;20486;-86
2022/09/01 07:11:43;;;;;;;1.45;1.15;;;16.30;99.90;;;;;;5111178;27;20039;-86
2022/09/01 07:14:10;;;;;;;2.80;1.63;;;16.30;99.90;;;;;;5096467;27;20050;-86
2022/09/01 07:16:39;;;;;;;7.50;1.95;;;16.30;99.90;;;;;;5094387;27;20047;-87
2022/09/01 07:19:13;;;;;;;3.15;1.52;;;16.30;99.90;;;;;;5114255;27;20074;-86
2022/09/01 07:21:41;;;;;;;6.78;1.92;;;16.30;99.90;;;;;;5113003;27;20035;-86
2022/09/01 07:24:07;;;;;;;3.15;1.20;;;16.40;99.90;;;;;;5113592;27;20054;-86
2022/09/01 07:26:34;;;;;;;5.13;1.50;;;16.50;99.90;;;;;;5095849;27;20078;-86
2022/09/01 07:29:02;;;;;;;2.70;1.35;;;16.60;99.90;;;;;;5110494;27;20047;-85
2022/09/01 07:31:35;;;;;;;2.03;1.08;;;16.70;99.90;;;;;;5112045;27;20047;-85
2022/09/01 07:34:09;;;;;;;2.45;1.40;;;16.90;99.90;;;;;;5110048;27;20050;-86
2022/09/01 07:36:36;;;;;;;2.58;1.10;;;17.00;99.90;;;;;;5111826;27;20411;-86
2022/09/01 07:39:03;;;;;;;5.15;1.15;;;17.20;99.90;;;;;;5093122;27;20039;-86
2022/09/01 07:41:29;;;;;;;2.38;1.20;;;17.40;99.90;;;;;;5092263;27;20031;-86
2022/09/01 07:43:55;;;;;;;8.00;1.20;;;17.50;99.90;;;;;;5111053;27;20481;-86
2022/09/01 07:46:24;;;;;;;1.23;0.95;;;17.60;99.90;;;;;;5108597;27;20046;-85
2022/09/01 07:48:53;;;;;;;3.05;1.20;;;17.70;99.90;;;;;;5111090;27;20084;-86
2022/09/01 07:51:21;;;;;;;5.18;1.42;;;17.80;99.90;;;;;;5108754;27;20039;-86
2022/09/01 07:53:48;;;;;;;1.85;1.35;;;17.90;99.90;;;;;;5109798;27;20075;-85
2022/09/01 07:56:15;;;;;;;1.67;0.80;;;18.00;99.90;;;;;;5109778;27;20525;-85
2022/09/01 07:58:41;;;;;;;7.07;1.00;;;18.10;99.90;;;;;;5092068;27;20042;-86
2022/09/01 08:01:08;;;;;;;1.35;0.80;;;18.50;99.90;;;;;;5110849;27;20043;-86
2022/09/01 08:03:34;;;;;;;2.92;1.00;;;18.40;99.90;;;;;;5091312;27;20043;-86
2022/09/01 08:06:06;;;;;;;9.77;1.38;;;18.50;99.90;;;;;;5093451;27;20066;-86
2022/09/01 08:08:33;;;;;;;2.80;1.35;;;18.70;99.90;;;;;;5108808;27;20051;-85
2022/09/01 08:10:59;;;;;;;3.05;1.00;;;18.80;99.90;;;;;;5109837;27;20051;-85
2022/09/01 08:13:25;;;;;;;2.42;1.00;;;18.80;99.90;;;;;;5109771;27;20130;-86
2022/09/01 08:15:51;;;;;;;2.90;1.17;;;18.70;99.90;;;;;;5091557;27;20055;-85
2022/09/01 08:18:16;;;;;;;3.67;1.13;;;18.80;99.90;;;;;;5093021;27;20054;-85
2022/09/01 08:20:44;;;;;;;3.78;1.00;;;18.70;99.90;;;;;;5076271;27;20126;-86
2022/09/01 08:23:12;;;;;;;2.78;1.00;;;18.70;99.90;;;;;;5096103;27;20050;-85
2022/09/01 08:25:38;;;;;;;1.33;0.65;;;18.80;99.90;;;;;;5110693;27;20122;-87
2022/09/01 08:28:05;;;;;;;6.90;1.35;;;18.80;99.90;;;;;;5095178;27;20039;-86
2022/09/01 08:30:31;;;;;;;5.28;0.80;;;18.80;99.90;;;;;;5093979;27;20417;-87
2022/09/01 08:32:58;;;;;;;3.40;0.90;;;18.90;99.90;;;;;;5075903;27;20444;-86
2022/09/01 08:35:24;;;;;;;0.90;0.77;;;19.00;99.90;;;;;;5094161;27;20043;-85
2022/09/01 08:37:49;;;;;;;1.38;0.82;;;19.10;99.90;;;;;;5091242;27;20406;-86
2022/09/01 08:40:19;;;;;;;2.00;0.73;;;19.20;99.90;;;;;;5093951;27;20103;-86
2022/09/01 08:43:12;;;;;;;2.17;1.05;;;19.30;99.90;;;;;;5091021;27;20046;-86
2022/09/01 08:45:53;;;;;;;2.17;0.88;;;19.40;99.90;;;;;;5091341;27;20476;-86
2022/09/01 08:48:42;;;;;;;3.17;1.15;;;19.50;99.90;;;;;;5109431;27;20074;-86
2022/09/01 08:51:42;;;;;;;2.55;1.17;;;19.70;99.90;;;;;;5108475;27;20434;-85
2022/09/01 08:54:25;;;;;;;1.35;1.00;;;20.00;99.90;;;;;;5108032;28;20559;-86
2022/09/01 08:56:59;;;;;;;1.65;0.80;;;20.20;99.90;;;;;;5109337;27;20043;-86
2022/09/01 08:59:26;;;;;;;2.08;0.90;;;20.30;99.90;;;;;;5090490;27;20107;-86
2022/09/01 09:02:22;;;;;;;3.05;0.82;;;20.50;99.90;;;;;;5109837;28;20078;-84
2022/09/01 09:04:56;;;;;;;1.15;0.63;;;20.80;99.90;;;;;;5092243;28;20054;-83
2022/09/01 09:07:55;;;;;;;2.08;0.70;;;20.90;99.90;;;;;;5107797;28;20047;-85
2022/09/01 09:10:29;;;;;;;1.20;0.50;;;21.10;99.90;;;;;;5110585;28;20391;-84
2022/09/01 09:13:19;;;;;;;1.58;0.80;;;21.10;99.90;;;;;;5092134;28;20387;-85
2022/09/01 09:16:03;;;;;;;2.60;1.02;;;21.10;99.90;;;;;;5091625;28;20051;-84
2022/09/01 09:18:52;;;;;;;2.38;0.57;;;21.10;99.90;;;;;;5094225;28;20043;-84
2022/09/01 09:21:40;;;;;;;2.97;0.80;;;21.20;99.90;;;;;;5108544;28;20139;-84
2022/09/01 09:24:11;;;;;;;1.30;0.60;;;21.30;99.90;;;;;;5108483;28;20054;-84
2022/09/01 09:26:37;;;;;;;2.30;0.80;;;21.40;99.90;;;;;;5109135;28;20047;-84
2022/09/01 09:29:03;;;;;;;1.92;0.70;;;21.50;99.90;;;;;;5107690;28;20038;-84
2022/09/01 09:31:32;;;;;;;0.93;0.50;;;21.70;99.90;;;;;;5092448;28;20107;-84
2022/09/01 09:33:58;;;;;;;1.48;0.80;;;21.90;99.90;;;;;;5090296;28;20048;-84
2022/09/01 09:36:33;;;;;;;2.60;0.80;;;22.10;99.90;;;;;;5091757;28;20039;-84
2022/09/01 09:39:08;;;;;;;2.00;0.60;;;22.30;99.90;;;;;;5091560;28;20063;-84
2022/09/01 09:41:36;;;;;;;1.15;0.40;;;22.50;99.90;;;;;;5111318;27;20134;-84
2022/09/01 09:44:19;;;;;;;0.43;0.40;;;22.60;99.90;;;;;;5112997;27;20047;-84
2022/09/01 09:46:47;;;;;;;0.68;0.20;;;22.60;99.90;;;;;;5112119;27;20370;-84
2022/09/01 09:49:33;;;;;;;0.70;0.40;;;22.50;99.90;;;;;;5096200;27;20043;-84
2022/09/01 09:52:01;;;;;;;1.45;0.50;;;22.50;99.90;;;;;;5096108;27;20100;-84
2022/09/01 09:54:30;;;;;;;1.38;0.60;;;22.60;99.90;;;;;;5111289;27;20103;-84
2022/09/01 09:57:08;;;;;;;2.78;0.50;;;22.70;99.90;;;;;;5096857;27;20089;-83
2022/09/01 09:59:44;;;;;;;1.48;0.50;;;22.70;99.90;;;;;;5112294;27;20039;-83
2022/09/01 10:02:26;;;;;;;0.55;0.30;;;22.80;99.90;;;;;;5114263;27;20051;-83
2022/09/01 10:04:52;;;;;;;1.50;0.60;;;22.80;99.90;;;;;;5113085;27;20501;-84
2022/09/01 10:07:28;;;;;;;1.52;0.45;;;22.90;99.90;;;;;;5093981;27;20047;-87
2022/09/01 10:09:55;;;;;;;1.38;0.40;;;22.90;99.90;;;;;;5113092;27;20134;-83
2022/09/01 10:12:23;;;;;;;0.60;0.32;;;22.90;99.80;;;;;;5110738;27;20187;-84
2022/09/01 10:15:02;;;;;;;1.67;0.30;;;23.00;99.40;;;;;;5112898;27;20142;-83
2022/09/01 10:17:33;;;;;;;2.72;1.00;;;23.00;98.80;;;;;;5112613;27;20047;-85
2022/09/01 10:20:11;;;;;;;1.67;0.30;;;23.10;98.40;;;;;;5094424;27;20074;-84
2022/09/01 10:22:40;;;;;;;1.95;0.50;;;23.20;98.80;;;;;;5112690;27;20102;-85
2022/09/01 10:25:08;;;;;;;1.88;0.50;;;23.40;98.80;;;;;;5110325;27;20050;-85
2022/09/01 10:27:42;;;;;;;0.47;0.30;;;23.40;97.60;;;;;;5112607;27;20043;-84
2022/09/01 10:30:19;;;;;;;2.05;0.30;;;23.40;97.00;;;;;;5094341;27;20047;-85
2022/09/01 10:32:50;;;;;;;2.38;0.30;;;23.50;96.20;;;;;;5110294;27;20557;-85
2022/09/01 10:35:25;;;;;;;1.70;0.60;;;23.50;95.90;;;;;;5112418;27;20039;-84
2022/09/01 10:37:53;;;;;;;0.40;0.22;;;23.60;95.20;;;;;;5109952;27;20050;-85
2022/09/01 10:40:22;;;;;;;0.88;0.32;;;23.70;95.10;;;;;;5112433;27;20082;-85
2022/09/01 10:42:54;;;;;;;2.58;0.52;;;23.80;94.50;;;;;;5112218;27;20134;-85
2022/09/01 10:45:32;;;;;;;0.70;0.40;;;23.80;94.40;;;;;;5112836;27;20047;-85
2022/09/01 10:48:20;;;;;;;3.72;0.50;;;23.80;93.60;;;;;;5114165;27;20043;-84
2022/09/01 10:50:52;;;;;;;1.00;0.28;;;23.70;92.30;;;;;;5094537;27;20039;-85
2022/09/01 10:53:44;;;;;;;2.78;0.80;;;23.60;92.40;;;;;;5112102;27;20053;-85
2022/09/01 10:56:36;;;;;;;5.15;0.40;;;23.80;91.20;;;;;;5104026;27;20051;-85
2022/09/01 10:59:25;;;;;;;2.42;0.60;;;24.00;88.60;;;;;;5100814;27;20138;-84
2022/09/01 11:01:51;;;;;;;0.95;0.30;;;24.20;89.50;;;;;;5109451;27;20051;-85
2022/09/01 11:04:23;;;;;;;1.40;0.40;;;24.20;84.40;;;;;;5094671;27;20138;-84
2022/09/01 11:07:24;;;;;;;0.88;0.40;;;24.10;81.90;;;;;;5111716;27;20044;-84
2022/09/01 11:10:12;;;;;;;0.43;0.20;;;24.00;78.90;;;;;;5112833;27;20486;-84
2022/09/01 11:13:05;;;;;;;0.88;0.40;;;24.00;84.60;;;;;;5093941;27;20465;-85
2022/09/01 11:15:42;;;;;;;5.32;0.40;;;24.20;77.10;;;;;;5112429;27;20446;-84
2022/09/01 11:18:30;;;;;;;1.80;0.30;;;24.20;79.60;;;;;;5112192;27;20051;-85
2022/09/01 11:21:22;;;;;;;0.80;0.30;;;24.10;81.00;;;;;;5112561;27;20089;-86
2022/09/01 11:23:50;;;;;;;2.38;0.13;;;23.70;71.80;;;;;;5100958;27;20061;-83
2022/09/01 11:26:47;;;;;;;1.42;0.77;;;23.50;77.10;;;;;;5063368;27;20035;-86
2022/09/01 11:29:51;;;;;;;0.63;0.30;;;23.30;75.20;;;;;;5089636;27;20051;-86
2022/09/01 11:32:20;;;;;;;1.75;0.40;;;23.30;69.20;;;;;;5110898;27;20050;-84
2022/09/01 11:34:48;;;;;;;0.68;0.30;;;23.10;74.20;;;;;;5110777;27;20043;-84
2022/09/01 11:37:20;;;;;;;1.92;0.40;;;23.10;75.50;;;;;;5092527;27;20123;-85
2022/09/01 11:39:49;;;;;;;0.95;0.25;;;23.00;72.80;;;;;;5094016;27;20108;-85
2022/09/01 11:42:22;;;;;;;3.47;0.43;;;23.00;73.70;;;;;;5109517;27;20039;-85
2022/09/01 11:44:58;;;;;;;;;;;23.10;72.50;;;;;;5094415;27;20043;-85
2022/09/01 11:47:36;;;;;;;0.47;0.30;;;23.30;74.30;;;;;;5110286;27;19919;-85
2022/09/01 11:50:26;;;;;;;1.92;0.30;;;23.60;74.30;;;;;;5108762;27;20054;-85
2022/09/01 11:52:55;;;;;;;0.28;0.17;;;23.90;74.10;;;;;;5110248;27;20047;-85
2022/09/01 11:55:39;;;;;;;3.20;0.47;;;24.00;71.30;;;;;;5105453;28;20101;-85
2022/09/01 11:58:10;;;;;;;1.15;0.20;;;24.30;68.20;;;;;;5106290;28;20351;-84
2022/09/01 12:00:39;;;;;;;1.02;0.40;;;24.50;69.80;;;;;;5107530;28;20043;-85
2022/09/01 12:03:36;;;;;;;4.32;0.47;;;24.70;68.80;;;;;;5096477;28;20086;-84
2022/09/01 12:06:07;;;;;;;2.47;0.40;;;25.00;66.20;;;;;;5110043;27;20054;-85
2022/09/01 12:08:39;;;;;;;1.20;0.30;;;25.10;64.60;;;;;;5109216;27;20320;-85
2022/09/01 12:11:10;;;;;;;0.80;0.32;;;25.30;62.10;;;;;;5108798;27;20050;-85
2022/09/01 12:13:37;;;;;;;1.02;0.50;;;25.40;63.00;;;;;;5109882;27;20291;-85
2022/09/01 12:16:07;;;;;;;0.30;0.30;;;25.60;62.50;;;;;;5091538;27;20512;-84
2022/09/01 12:18:46;;;;;;;2.05;0.50;;;25.70;61.40;;;;;;5110166;27;20046;-84
2022/09/01 12:21:41;;;;;;;1.10;0.35;;;25.90;61.10;;;;;;5108679;27;20054;-84
2022/09/01 12:24:22;;;;;;;1.33;0.45;;;26.00;60.20;;;;;;5108241;27;20110;-85
2022/09/01 12:26:50;;;;;;;2.05;0.40;;;26.10;57.80;;;;;;5093083;27;20076;-86
2022/09/01 12:29:17;;;;;;;1.15;0.45;;;26.10;58.70;;;;;;5108456;27;20035;-85
2022/09/01 12:31:46;;;;;;;1.45;0.50;;;26.20;58.40;;;;;;5110368;27;20042;-84
2022/09/01 12:34:36;;;;;;;0.98;0.40;;;26.30;59.80;;;;;;5109014;27;20035;-85
2022/09/01 12:37:14;;;;;;;0.30;0.20;;;26.30;55.40;;;;;;5107985;27;20055;-85
2022/09/01 12:39:46;;;;;;;0.30;0.30;;;26.20;57.40;;;;;;5109936;27;20050;-85
2022/09/01 12:42:18;;;;;;;;;;;26.40;56.80;;;;;;5108331;27;20046;-84
2022/09/01 12:45:07;;;;;;;0.50;0.30;;;26.50;56.70;;;;;;5109540;27;19919;-84
2022/09/01 12:47:33;;;;;;;1.20;0.43;;;26.60;56.60;;;;;;5109181;28;20474;-84
2022/09/01 12:50:28;;;;;;;2.05;0.30;;;26.70;56.10;;;;;;5090859;27;20040;-84
2022/09/01 12:53:02;;;;;;;1.10;0.35;;;26.80;53.60;;;;;;5109893;27;20102;-84
2022/09/01 12:55:31;;;;;;;1.85;0.50;;;26.80;55.00;;;;;;5107941;27;20100;-84
2022/09/01 12:58:03;;;;;;;0.60;0.38;;;26.90;54.40;;;;;;5109097;27;20461;-84
2022/09/01 13:00:32;;;;;;;2.50;0.43;;;26.90;53.70;;;;;;5108960;27;20050;-85
2022/09/01 13:03:01;;;;;;;0.82;0.30;;;26.80;53.30;;;;;;5107444;28;20050;-83
2022/09/01 13:05:39;;;;;;;1.58;0.10;;;26.70;53.90;;;;;;5092387;28;20151;-84
2022/09/01 13:08:16;;;;;;;0.73;0.38;;;26.60;52.20;;;;;;5107585;28;20490;-84
2022/09/01 13:11:00;;;;;;;3.55;0.40;;;26.70;53.50;;;;;;5108682;28;20047;-83
2022/09/01 13:13:27;;;;;;;3.53;0.30;;;26.80;53.20;;;;;;5108930;28;20039;-84